Terminal Aerodrome Forecast
Issued by NWS

Home | Current Version | Previous Version | Text Only | Print | Product List | Glossary On
Versions: 1 2 3 4 5 6 7 8 9 10 11 12 13 14 15
009
FTUS46 KMTR 300527
TAFSNS
TAF
KSNS 300527Z 3006/3106 28007KT P6SM FEW020 SCT150
      TEMPO 3006/3008 BKN008 OVC011
     FM300800 29005KT 6SM -DZ BR OVC008
     FM301600 29006KT P6SM SCT015 SCT200
     FM302000 29017G27KT P6SM FEW020 SCT250
     FM310300 29014KT P6SM FEW020 SCT250=

USA.gov is the U.S. government's official web portal to all federal, state and local government web resources and services.